Time;durP1;ratioP1;P1;durP2;ratioP2;P2;SDS_P1;SDS_P2;PMS_P1;PMS_P2;Temp;Humidity;BMP_temperature;BMP_pressure;BME280_temperature;BME280_humidity;BME280_pressure;Samples;Min_cycle;Max_cycle;Signal;HPM_P1;HPM_P2
2023/06/22 00:02:26;;;;;;;13.95;7.43;;;;;;;18.53;100.00;97314.97;4997718;28;20043;-63
2023/06/22 00:04:52;;;;;;;12.88;8.07;;;;;;;18.52;100.00;97305.13;4987288;28;20449;-63
2023/06/22 00:07:19;;;;;;;9.98;7.10;;;;;;;18.48;100.00;97311.50;4989568;28;20579;-61
2023/06/22 00:09:45;;;;;;;11.80;7.95;;;;;;;18.14;100.00;97310.81;4986211;28;20045;-62
2023/06/22 00:12:12;;;;;;;11.95;8.23;;;;;;;18.08;100.00;97310.09;5003659;28;20120;-62
2023/06/22 00:14:38;;;;;;;9.00;7.53;;;;;;;17.96;100.00;97312.47;4995586;28;20042;-62
2023/06/22 00:17:05;;;;;;;11.70;7.68;;;;;;;18.13;100.00;97318.19;4987215;28;20248;-62
2023/06/22 00:19:32;;;;;;;12.85;7.68;;;;;;;18.12;100.00;97311.09;4994323;28;20494;-62
2023/06/22 00:22:00;;;;;;;13.00;8.32;;;;;;;17.90;100.00;97311.75;4990756;28;20077;-63
2023/06/22 00:24:26;;;;;;;12.27;8.38;;;;;;;17.96;100.00;97328.91;4994674;28;20046;-62
2023/06/22 00:26:53;;;;;;;11.65;8.35;;;;;;;18.10;100.00;97327.03;4989695;28;20049;-63
2023/06/22 00:29:19;;;;;;;11.65;7.47;;;;;;;18.25;100.00;97311.41;4997365;28;20429;-62
2023/06/22 00:31:46;;;;;;;13.00;7.40;;;;;;;18.26;100.00;97304.81;4974349;28;20046;-62
2023/06/22 00:34:14;;;;;;;10.20;6.72;;;;;;;18.37;100.00;97308.16;4970682;28;20042;-62
2023/06/22 00:36:40;;;;;;;12.45;7.13;;;;;;;18.30;100.00;97330.50;4987992;28;20117;-62
2023/06/22 00:39:08;;;;;;;14.68;7.68;;;;;;;18.06;100.00;97340.47;4992578;28;20049;-62
2023/06/22 00:41:35;;;;;;;11.60;7.95;;;;;;;18.01;100.00;97326.06;4991883;28;20421;-62
2023/06/22 00:44:03;;;;;;;13.70;7.82;;;;;;;18.13;100.00;97334.63;4986541;28;20537;-62
2023/06/22 00:46:31;;;;;;;11.60;7.97;;;;;;;18.20;100.00;97364.38;4974786;28;20390;-63
2023/06/22 00:48:59;;;;;;;8.95;7.28;;;;;;;18.05;100.00;97387.34;4992934;28;20038;-62
2023/06/22 00:51:27;;;;;;;14.02;8.48;;;;;;;18.01;100.00;97408.25;4987236;28;20030;-62
2023/06/22 00:53:54;;;;;;;13.27;8.35;;;;;;;18.11;100.00;97423.72;4996296;28;20521;-63
2023/06/22 00:56:24;;;;;;;14.57;8.32;;;;;;;18.26;100.00;97398.81;4975380;28;20153;-62
2023/06/22 00:58:52;;;;;;;13.23;8.40;;;;;;;18.31;100.00;97381.44;4981305;28;20073;-62
2023/06/22 01:01:22;;;;;;;11.77;8.35;;;;;;;18.32;100.00;97372.91;4988621;28;20410;-62
2023/06/22 01:03:50;;;;;;;13.73;7.93;;;;;;;18.24;100.00;97368.13;4995362;28;20034;-62
2023/06/22 01:06:27;;;;;;;11.05;7.57;;;;;;;18.24;100.00;97359.13;4994146;28;20097;-62
2023/06/22 01:09:15;;;;;;;12.05;8.05;;;;;;;18.30;100.00;97353.25;4987964;28;20046;-62
2023/06/22 01:11:48;;;;;;;10.45;7.35;;;;;;;18.13;100.00;97342.84;4985714;28;20081;-63
2023/06/22 01:14:23;;;;;;;10.73;7.70;;;;;;;18.00;100.00;97340.88;4991847;28;20045;-62
2023/06/22 01:16:52;;;;;;;10.75;8.05;;;;;;;18.10;100.00;97348.97;4981558;28;20042;-63
2023/06/22 01:19:46;;;;;;;11.45;8.13;;;;;;;18.04;100.00;97340.00;4968923;28;20521;-63
2023/06/22 01:22:17;;;;;;;10.68;7.72;;;;;;;18.03;100.00;97341.09;4974362;28;20038;-62
2023/06/22 01:24:55;;;;;;;11.25;8.30;;;;;;;18.09;100.00;97322.66;5003386;28;20049;-63
2023/06/22 01:27:25;;;;;;;12.88;7.93;;;;;;;18.01;100.00;97337.03;4996509;28;20201;-61
2023/06/22 01:30:00;;;;;;;11.95;7.75;;;;;;;18.06;100.00;97337.75;4997464;28;20042;-62
2023/06/22 01:32:32;;;;;;;11.88;7.57;;;;;;;18.09;100.00;97330.09;4989671;28;20126;-62
2023/06/22 01:35:01;;;;;;;11.32;7.20;;;;;;;17.83;100.00;97336.78;4990134;28;20125;-62
2023/06/22 01:37:34;;;;;;;11.35;8.48;;;;;;;17.76;100.00;97339.13;4988646;28;20112;-62
2023/06/22 01:40:01;;;;;;;11.10;7.50;;;;;;;17.69;100.00;97331.25;4978392;28;20045;-61
2023/06/22 01:42:28;;;;;;;14.55;8.50;;;;;;;17.71;100.00;97342.75;4981260;28;20053;-62
2023/06/22 01:44:56;;;;;;;14.60;9.45;;;;;;;17.62;100.00;97348.06;4979491;28;20042;-61
2023/06/22 01:47:24;;;;;;;13.27;8.52;;;;;;;17.46;100.00;97347.53;4992235;28;20050;-62
2023/06/22 01:49:51;;;;;;;14.23;7.80;;;;;;;17.29;100.00;97342.59;4990461;28;20076;-62
2023/06/22 01:52:21;;;;;;;11.48;8.38;;;;;;;17.19;100.00;97361.88;4977373;28;20420;-62
2023/06/22 01:54:48;;;;;;;14.15;8.63;;;;;;;17.16;100.00;97355.91;4988813;28;20057;-63
2023/06/22 01:57:15;;;;;;;12.52;8.38;;;;;;;17.29;100.00;97353.53;4993139;28;20440;-62
2023/06/22 01:59:57;;;;;;;13.48;8.07;;;;;;;17.35;100.00;97355.06;4980658;28;20137;-63
2023/06/22 02:02:29;;;;;;;17.95;9.63;;;;;;;17.14;100.00;97360.84;4979398;28;20076;-63
2023/06/22 02:05:03;;;;;;;12.18;8.25;;;;;;;17.00;100.00;97368.94;4995641;28;20124;-63
2023/06/22 02:07:56;;;;;;;14.07;8.65;;;;;;;17.07;100.00;97356.84;4992629;28;20049;-62
2023/06/22 02:10:24;;;;;;;14.98;8.88;;;;;;;17.19;100.00;97368.19;4988959;28;20117;-62
2023/06/22 02:12:51;;;;;;;15.38;9.38;;;;;;;17.18;100.00;97376.69;4990499;28;20050;-63
2023/06/22 02:15:18;;;;;;;13.90;8.57;;;;;;;17.23;100.00;97371.13;5000875;28;20300;-62
2023/06/22 02:17:47;;;;;;;11.48;9.00;;;;;;;17.16;100.00;97363.28;4973325;28;20077;-63
2023/06/22 02:20:14;;;;;;;13.25;8.15;;;;;;;17.06;100.00;97364.25;4990883;28;20407;-63
2023/06/22 02:22:41;;;;;;;10.35;7.78;;;;;;;16.97;100.00;97363.25;4978347;28;20053;-63
2023/06/22 02:25:10;;;;;;;15.13;8.38;;;;;;;16.94;100.00;97356.44;4994642;28;20046;-62
2023/06/22 02:27:40;;;;;;;15.52;8.68;;;;;;;17.04;100.00;97341.81;4989152;28;20042;-62
2023/06/22 02:30:09;;;;;;;14.00;9.35;;;;;;;17.10;100.00;97337.13;4988534;28;20038;-62
2023/06/22 02:32:41;;;;;;;15.50;10.05;;;;;;;17.07;100.00;97335.81;4972446;28;20099;-63
2023/06/22 02:35:09;;;;;;;14.13;8.93;;;;;;;17.08;100.00;97339.34;4979295;28;20042;-62
2023/06/22 02:37:41;;;;;;;12.82;8.30;;;;;;;16.70;100.00;97335.41;4988799;28;20520;-63
2023/06/22 02:40:09;;;;;;;11.75;7.78;;;;;;;16.75;100.00;97329.91;4990086;28;20125;-62
2023/06/22 02:42:39;;;;;;;14.20;8.52;;;;;;;16.89;100.00;97334.66;4987959;28;20046;-62
2023/06/22 02:45:06;;;;;;;12.63;9.48;;;;;;;16.96;100.00;97326.06;4988815;28;20421;-62
2023/06/22 02:47:32;;;;;;;18.60;10.50;;;;;;;17.06;100.00;97339.63;4971294;28;20493;-62
2023/06/22 02:50:00;;;;;;;15.88;8.75;;;;;;;17.02;100.00;97333.09;4973674;28;20045;-62
2023/06/22 02:52:28;;;;;;;13.32;8.57;;;;;;;16.96;100.00;97326.91;4979974;28;20536;-62
2023/06/22 02:54:54;;;;;;;12.20;8.68;;;;;;;16.92;100.00;97325.03;4971508;28;20043;-62
2023/06/22 02:57:21;;;;;;;17.13;8.85;;;;;;;16.99;100.00;97325.50;4970920;28;20050;-62
2023/06/22 02:59:48;;;;;;;15.35;9.10;;;;;;;16.99;100.00;97334.50;4970491;28;20502;-62
2023/06/22 03:02:14;;;;;;;12.35;7.85;;;;;;;16.87;100.00;97332.19;4987116;28;20567;-62
2023/06/22 03:04:42;;;;;;;11.10;7.90;;;;;;;16.61;100.00;97337.19;4975403;28;20053;-62
2023/06/22 03:07:08;;;;;;;16.55;8.63;;;;;;;16.52;100.00;97331.56;4971998;28;20513;-62
2023/06/22 03:09:35;;;;;;;15.70;9.07;;;;;;;16.62;100.00;97330.63;4974482;28;20587;-62
2023/06/22 03:12:02;;;;;;;12.63;9.80;;;;;;;16.75;100.00;97334.53;4969890;28;20142;-62
2023/06/22 03:14:38;;;;;;;15.30;8.32;;;;;;;16.68;100.00;97323.97;4974532;28;20037;-62
2023/06/22 03:17:06;;;;;;;11.32;7.95;;;;;;;16.35;100.00;97321.09;4988051;28;20115;-62
2023/06/22 03:19:32;;;;;;;14.57;8.85;;;;;;;16.45;100.00;97333.81;4972880;28;20042;-63
2023/06/22 03:22:00;;;;;;;11.65;9.23;;;;;;;16.47;100.00;97320.69;4968982;28;20129;-62
2023/06/22 03:24:29;;;;;;;14.57;9.25;;;;;;;16.47;100.00;97329.69;4969754;28;20053;-61
2023/06/22 03:26:56;;;;;;;12.50;8.82;;;;;;;16.61;100.00;97324.34;4987290;28;20096;-62
2023/06/22 03:29:23;;;;;;;17.20;9.27;;;;;;;16.68;100.00;97315.78;4972782;28;20038;-62
2023/06/22 03:31:50;;;;;;;13.77;8.93;;;;;;;16.68;100.00;97314.94;4964485;28;20045;-62
2023/06/22 03:34:18;;;;;;;16.30;9.32;;;;;;;16.50;100.00;97312.72;4987806;28;20605;-62
2023/06/22 03:36:45;;;;;;;10.73;8.23;;;;;;;16.49;100.00;97310.28;4970223;28;20054;-63
2023/06/22 03:39:11;;;;;;;15.35;9.18;;;;;;;16.48;100.00;97309.44;4988664;28;20050;-62
2023/06/22 03:41:39;;;;;;;13.05;9.23;;;;;;;16.52;100.00;97312.44;4970413;28;20677;-63
2023/06/22 03:44:06;;;;;;;15.30;8.52;;;;;;;16.57;100.00;97315.09;4971390;28;20046;-63
2023/06/22 03:46:32;;;;;;;16.67;9.13;;;;;;;16.66;100.00;97306.25;4971957;28;20054;-63
2023/06/22 03:48:59;;;;;;;12.38;9.77;;;;;;;16.70;100.00;97299.09;4970048;28;20485;-62
2023/06/22 03:51:25;;;;;;;12.32;9.20;;;;;;;16.68;100.00;97304.84;4988739;28;20043;-62
2023/06/22 03:53:52;;;;;;;14.02;8.85;;;;;;;16.73;100.00;97302.03;4985721;28;20540;-62
2023/06/22 03:56:20;;;;;;;12.13;8.65;;;;;;;16.79;100.00;97305.50;4987054;28;20087;-63
2023/06/22 03:58:46;;;;;;;12.57;8.85;;;;;;;16.89;100.00;97299.88;4989574;28;20465;-62
2023/06/22 04:01:13;;;;;;;14.80;9.05;;;;;;;16.79;100.00;97297.31;4989451;28;20113;-62
2023/06/22 04:03:41;;;;;;;14.20;9.43;;;;;;;16.76;100.00;97303.34;4985822;28;20529;-62
2023/06/22 04:06:07;;;;;;;13.90;8.60;;;;;;;16.54;100.00;97304.75;4987019;28;20122;-62
2023/06/22 04:08:34;;;;;;;13.13;8.75;;;;;;;16.47;100.00;97309.78;4988566;28;20046;-62
2023/06/22 04:11:01;;;;;;;12.48;8.55;;;;;;;16.57;100.00;97311.53;4987055;28;20045;-63
2023/06/22 04:13:27;;;;;;;13.45;9.73;;;;;;;16.74;100.00;97306.38;4988590;28;20038;-63
2023/06/22 04:15:54;;;;;;;12.52;9.15;;;;;;;16.88;100.00;97297.47;4986863;28;20042;-63
2023/06/22 04:18:20;;;;;;;12.35;8.18;;;;;;;16.86;100.00;97294.22;4986516;28;20046;-62
2023/06/22 04:20:47;;;;;;;15.57;9.10;;;;;;;16.77;100.00;97294.88;4986164;28;20042;-63
2023/06/22 04:23:13;;;;;;;12.15;8.27;;;;;;;16.93;100.00;97291.94;4985644;28;20050;-61
2023/06/22 04:25:40;;;;;;;13.00;9.48;;;;;;;17.14;100.00;97295.19;4986502;28;20054;-62
2023/06/22 04:28:12;;;;;;;13.25;9.35;;;;;;;17.25;100.00;97278.63;4986592;28;20050;-63
2023/06/22 04:30:46;;;;;;;13.73;9.55;;;;;;;17.27;100.00;97274.47;4985675;28;20045;-62
2023/06/22 04:33:16;;;;;;;14.52;9.80;;;;;;;17.41;100.00;97276.44;4989440;28;20042;-62
2023/06/22 04:35:45;;;;;;;12.75;8.95;;;;;;;17.50;100.00;97265.59;4989125;28;20050;-62
2023/06/22 04:38:13;;;;;;;15.27;9.00;;;;;;;17.59;100.00;97274.78;4989262;28;20127;-63
2023/06/22 04:40:40;;;;;;;16.27;10.02;;;;;;;17.80;100.00;97272.47;4986127;28;20042;-62
2023/06/22 04:43:06;;;;;;;15.23;9.45;;;;;;;18.02;100.00;97268.25;4985455;28;20046;-62
2023/06/22 04:45:33;;;;;;;14.95;9.85;;;;;;;18.22;100.00;97269.00;4986151;28;20510;-62
2023/06/22 04:47:59;;;;;;;14.18;8.52;;;;;;;18.33;100.00;97261.38;4985980;28;20044;-62
2023/06/22 04:50:26;;;;;;;12.77;8.57;;;;;;;18.49;100.00;97256.38;4990017;28;20042;-62
2023/06/22 04:52:53;;;;;;;15.57;9.40;;;;;;;18.59;100.00;97247.94;4988279;28;20516;-63
2023/06/22 04:55:20;;;;;;;12.60;8.27;;;;;;;18.75;100.00;97249.53;4987694;28;20126;-62
2023/06/22 04:57:50;;;;;;;14.05;9.82;;;;;;;18.89;100.00;97247.56;4985752;28;20050;-62
2023/06/22 05:00:22;;;;;;;12.77;8.63;;;;;;;19.03;100.00;97243.94;4983374;28;20471;-62
2023/06/22 05:02:49;;;;;;;12.50;8.30;;;;;;;19.14;100.00;97239.06;4985332;28;20129;-62
2023/06/22 05:05:16;;;;;;;10.70;8.30;;;;;;;19.18;100.00;97240.88;4991232;28;20486;-62
2023/06/22 05:07:45;;;;;;;14.05;9.80;;;;;;;19.17;100.00;97239.22;4988438;28;20125;-63
2023/06/22 05:10:12;;;;;;;18.80;11.60;;;;;;;19.24;100.00;97239.59;4993166;28;20038;-62
2023/06/22 05:12:39;;;;;;;14.60;9.45;;;;;;;19.41;100.00;97235.34;4984080;28;20068;-62
2023/06/22 05:15:09;;;;;;;13.50;8.75;;;;;;;19.47;100.00;97241.53;4988553;28;20045;-61
2023/06/22 05:17:42;;;;;;;13.82;9.25;;;;;;;19.50;100.00;97241.72;4985513;28;20062;-62
2023/06/22 05:20:11;;;;;;;12.75;9.25;;;;;;;19.56;100.00;97241.56;4985631;28;20101;-63
2023/06/22 05:22:38;;;;;;;10.77;7.93;;;;;;;19.65;100.00;97236.97;4985150;28;20042;-62
2023/06/22 05:25:09;;;;;;;12.75;8.10;;;;;;;19.73;100.00;97221.63;4986035;28;20553;-62
2023/06/22 05:27:39;;;;;;;12.77;7.75;;;;;;;19.78;100.00;97221.50;4985925;28;20045;-62
2023/06/22 05:30:23;;;;;;;14.32;10.00;;;;;;;19.76;100.00;97216.31;4988292;28;20041;-62
2023/06/22 05:33:07;;;;;;;17.50;9.05;;;;;;;19.90;100.00;97218.13;4982655;28;20653;-62
2023/06/22 05:35:39;;;;;;;9.52;7.30;;;;;;;19.97;100.00;97223.19;4988354;28;20069;-63
2023/06/22 05:38:06;;;;;;;13.45;8.77;;;;;;;20.01;100.00;97224.19;4988110;28;20093;-62
2023/06/22 05:40:32;;;;;;;12.68;7.35;;;;;;;20.00;100.00;97226.16;4979213;28;20045;-62
2023/06/22 05:43:00;;;;;;;13.25;8.30;;;;;;;19.98;100.00;97224.81;4984909;28;20054;-62
2023/06/22 05:45:27;;;;;;;13.13;8.30;;;;;;;20.02;100.00;97223.09;4987782;28;20054;-62
2023/06/22 05:47:53;;;;;;;13.68;8.60;;;;;;;20.02;100.00;97226.63;4990580;28;20101;-62
2023/06/22 05:50:20;;;;;;;13.25;9.38;;;;;;;20.13;100.00;97224.41;4989656;28;20130;-62
2023/06/22 05:52:46;;;;;;;13.50;8.80;;;;;;;20.30;100.00;97220.06;4979816;28;20042;-62
2023/06/22 05:55:13;;;;;;;13.18;8.00;;;;;;;20.33;100.00;97216.69;4984819;28;20094;-62
2023/06/22 05:57:40;;;;;;;13.48;8.05;;;;;;;20.40;100.00;97217.03;4983774;28;20042;-62
2023/06/22 06:00:10;;;;;;;14.68;8.93;;;;;;;20.45;99.96;97221.56;4974783;28;20042;-61
2023/06/22 06:02:40;;;;;;;15.53;9.57;;;;;;;20.54;100.00;97216.88;4976359;28;20444;-62
2023/06/22 06:05:07;;;;;;;13.05;8.45;;;;;;;20.69;99.78;97219.50;4979891;28;20297;-61
2023/06/22 06:07:34;;;;;;;13.50;9.05;;;;;;;20.80;97.83;97227.09;4980522;28;20057;-62
2023/06/22 06:10:00;;;;;;;15.15;8.75;;;;;;;20.88;97.66;97222.78;4987072;28;20039;-62
2023/06/22 06:12:27;;;;;;;13.25;8.75;;;;;;;20.95;96.50;97218.72;4993313;28;20073;-61
2023/06/22 06:14:55;;;;;;;14.00;8.82;;;;;;;20.94;95.85;97217.91;4991126;28;20037;-62
2023/06/22 06:17:21;;;;;;;13.43;8.20;;;;;;;21.00;96.94;97210.28;4989110;28;20050;-62
2023/06/22 06:19:48;;;;;;;13.95;8.50;;;;;;;21.11;96.89;97219.06;4982404;28;20053;-62
2023/06/22 06:22:14;;;;;;;13.30;8.90;;;;;;;21.21;96.06;97221.44;4988272;28;20045;-62
2023/06/22 06:24:41;;;;;;;15.63;8.55;;;;;;;21.30;95.71;97219.50;4993523;28;20052;-62
2023/06/22 06:27:08;;;;;;;12.98;8.45;;;;;;;21.36;95.22;97219.31;4988500;28;20046;-62
2023/06/22 06:29:34;;;;;;;14.65;8.73;;;;;;;21.44;94.76;97222.06;4982671;28;20046;-62
2023/06/22 06:32:01;;;;;;;14.65;8.68;;;;;;;21.45;94.09;97209.09;4984441;28;20554;-61
2023/06/22 06:34:27;;;;;;;11.63;8.48;;;;;;;21.54;93.81;97215.41;4982500;28;20054;-62
2023/06/22 06:36:54;;;;;;;14.27;8.38;;;;;;;21.63;93.00;97223.63;4979763;28;20043;-62
2023/06/22 06:39:20;;;;;;;14.13;8.80;;;;;;;21.62;92.36;97219.25;4987256;28;20391;-61
2023/06/22 06:41:47;;;;;;;13.05;8.18;;;;;;;21.77;93.11;97226.22;4989968;28;20121;-62
2023/06/22 06:44:14;;;;;;;14.98;9.38;;;;;;;21.85;91.49;97224.53;4971209;28;20043;-62
2023/06/22 06:46:42;;;;;;;11.75;7.75;;;;;;;21.96;91.31;97225.81;4988394;28;20529;-62
2023/06/22 06:49:08;;;;;;;15.00;9.55;;;;;;;22.04;90.40;97221.38;4979936;28;20126;-62
2023/06/22 06:51:35;;;;;;;14.57;7.90;;;;;;;22.17;90.86;97218.72;4981718;28;20039;-62
2023/06/22 06:54:03;;;;;;;10.70;7.47;;;;;;;22.25;88.51;97212.38;4984826;28;20666;-62
2023/06/22 06:56:30;;;;;;;10.82;7.30;;;;;;;22.32;87.17;97204.38;4982733;28;20046;-63
2023/06/22 06:58:56;;;;;;;13.02;7.20;;;;;;;22.43;86.92;97213.06;4997226;28;20416;-62
2023/06/22 07:01:23;;;;;;;10.25;7.10;;;;;;;22.51;88.65;97200.34;5002134;28;20045;-62
2023/06/22 07:03:49;;;;;;;11.45;6.65;;;;;;;22.57;85.36;97206.53;4999081;28;20045;-62
2023/06/22 07:06:16;;;;;;;8.57;5.78;;;;;;;22.57;82.76;97199.06;4995334;28;20497;-62
2023/06/22 07:08:43;;;;;;;9.77;5.93;;;;;;;22.74;81.90;97195.34;5002919;28;20070;-62
2023/06/22 07:11:09;;;;;;;13.52;6.68;;;;;;;22.80;80.39;97187.69;5004202;28;20531;-62
2023/06/22 07:13:35;;;;;;;11.90;6.13;;;;;;;22.90;80.75;97191.97;4999161;28;20038;-62
2023/06/22 07:16:02;;;;;;;10.30;5.53;;;;;;;22.93;81.36;97184.97;4999160;28;20049;-61
2023/06/22 07:18:29;;;;;;;12.75;6.35;;;;;;;23.03;81.82;97181.78;5002646;28;20048;-62
2023/06/22 07:20:55;;;;;;;11.50;6.00;;;;;;;23.11;81.06;97172.63;4983325;28;20034;-62
2023/06/22 07:23:22;;;;;;;8.85;5.53;;;;;;;23.20;78.88;97177.25;5001762;28;20223;-61
2023/06/22 07:25:49;;;;;;;10.75;6.22;;;;;;;23.35;77.62;97173.06;5000289;28;20062;-61
2023/06/22 07:28:15;;;;;;;13.10;6.05;;;;;;;23.42;77.54;97176.06;4998195;28;20042;-62
2023/06/22 07:30:42;;;;;;;10.93;6.18;;;;;;;23.37;77.08;97168.00;4998729;28;20046;-62
2023/06/22 07:33:08;;;;;;;10.48;5.40;;;;;;;23.43;77.81;97161.09;5001029;28;20042;-60
2023/06/22 07:35:35;;;;;;;11.65;6.30;;;;;;;23.42;76.74;97156.72;4998272;28;20038;-62
2023/06/22 07:38:02;;;;;;;11.52;5.22;;;;;;;23.52;76.74;97155.50;5001748;28;20037;-62
2023/06/22 07:40:32;;;;;;;10.60;6.30;;;;;;;23.63;76.53;97158.59;4994919;28;20136;-62
2023/06/22 07:42:59;;;;;;;10.52;5.97;;;;;;;23.74;75.65;97153.44;5000931;28;20030;-62
2023/06/22 07:45:25;;;;;;;10.77;6.15;;;;;;;23.75;75.58;97163.34;5000512;28;20054;-62
2023/06/22 07:47:52;;;;;;;15.90;6.40;;;;;;;23.72;76.12;97153.78;5001280;28;20041;-62
2023/06/22 07:50:18;;;;;;;11.57;5.93;;;;;;;23.84;75.74;97154.94;4999790;28;20064;-63
2023/06/22 07:52:45;;;;;;;11.70;6.03;;;;;;;23.83;75.14;97164.38;4998681;28;20659;-62
2023/06/22 07:55:12;;;;;;;12.57;6.47;;;;;;;23.91;74.53;97166.22;5000761;28;20056;-62
2023/06/22 07:57:38;;;;;;;10.20;5.97;;;;;;;24.03;73.95;97159.88;4995215;28;20134;-62
2023/06/22 08:00:12;;;;;;;11.25;5.70;;;;;;;24.01;73.03;97163.00;5003672;28;20049;-61
2023/06/22 08:02:40;;;;;;;10.98;5.55;;;;;;;23.97;73.08;97175.91;4994565;28;20077;-62
2023/06/22 08:05:08;;;;;;;9.98;5.53;;;;;;;24.08;73.52;97183.72;5001436;28;20121;-62
2023/06/22 08:07:46;;;;;;;9.07;5.50;;;;;;;24.21;72.20;97179.03;5000075;28;20063;-62
2023/06/22 08:10:14;;;;;;;8.70;5.95;;;;;;;24.12;71.64;97187.44;4999456;28;20048;-62
2023/06/22 08:12:41;;;;;;;9.18;5.28;;;;;;;24.26;72.21;97193.44;4998071;28;20038;-62
2023/06/22 08:15:09;;;;;;;9.05;5.72;;;;;;;24.45;71.37;97191.22;5000995;28;20042;-62
2023/06/22 08:17:39;;;;;;;10.45;5.63;;;;;;;24.74;70.02;97190.13;4997109;28;20046;-62
2023/06/22 08:20:11;;;;;;;7.78;5.40;;;;;;;24.83;70.29;97186.41;5001978;28;20116;-62
2023/06/22 08:22:42;;;;;;;10.00;5.25;;;;;;;25.05;69.13;97180.34;4995958;28;20080;-62
2023/06/22 08:25:09;;;;;;;12.63;5.47;;;;;;;25.26;67.54;97182.09;4999883;28;20660;-61
2023/06/22 08:27:36;;;;;;;9.95;5.93;;;;;;;25.47;68.33;97181.06;5000101;28;20046;-62
2023/06/22 08:30:03;;;;;;;7.38;4.95;;;;;;;25.64;68.55;97185.47;4994864;28;20104;-62
2023/06/22 08:32:32;;;;;;;8.10;4.63;;;;;;;25.63;65.47;97194.94;4998875;28;20113;-62
2023/06/22 08:34:59;;;;;;;8.73;4.72;;;;;;;25.47;66.50;97194.91;4996610;28;20046;-62
2023/06/22 08:37:30;;;;;;;12.80;5.32;;;;;;;25.41;66.71;97190.78;4996860;28;20072;-62
2023/06/22 08:39:58;;;;;;;10.15;4.95;;;;;;;25.40;67.17;97197.47;5003237;28;20402;-62
2023/06/22 08:42:25;;;;;;;9.07;4.40;;;;;;;25.37;67.85;97187.91;4996425;28;20565;-63
2023/06/22 08:44:52;;;;;;;11.75;4.75;;;;;;;25.10;67.94;97192.31;4999798;28;20042;-62
2023/06/22 08:47:20;;;;;;;11.55;5.28;;;;;;;25.28;66.50;97176.19;4999471;28;20645;-62
2023/06/22 08:49:47;;;;;;;9.80;4.30;;;;;;;25.27;66.91;97178.16;4998917;28;20120;-62
2023/06/22 08:52:13;;;;;;;9.32;4.47;;;;;;;25.45;67.29;97200.00;4998917;28;20042;-62
2023/06/22 08:54:40;;;;;;;10.90;4.32;;;;;;;25.49;65.70;97233.34;4999997;28;20425;-61
2023/06/22 08:57:07;;;;;;;10.05;5.53;;;;;;;25.65;64.86;97244.50;4997498;28;20042;-62
2023/06/22 08:59:33;;;;;;;10.13;5.55;;;;;;;25.69;65.15;97234.31;4999394;28;20042;-62
2023/06/22 09:02:00;;;;;;;7.53;3.88;;;;;;;25.69;65.10;97228.75;4998725;28;20485;-61
2023/06/22 09:04:26;;;;;;;8.93;4.43;;;;;;;25.83;62.67;97192.25;4999219;28;20121;-61
2023/06/22 09:06:53;;;;;;;17.73;4.43;;;;;;;26.09;63.20;97177.84;4984576;28;20040;-62
2023/06/22 09:09:21;;;;;;;8.93;3.90;;;;;;;26.23;62.00;97171.81;4998236;28;20107;-62
2023/06/22 09:11:47;;;;;;;8.60;4.72;;;;;;;26.47;62.36;97170.00;5003271;28;20050;-62
2023/06/22 09:14:14;;;;;;;8.75;4.00;;;;;;;26.44;62.38;97167.97;5000690;28;20046;-62
2023/06/22 09:16:41;;;;;;;10.05;5.35;;;;;;;26.38;61.41;97158.28;5000438;28;20053;-62
2023/06/22 09:19:07;;;;;;;7.00;4.80;;;;;;;26.39;61.32;97148.00;4999532;28;20042;-63
2023/06/22 09:21:34;;;;;;;8.93;3.80;;;;;;;26.52;61.04;97145.88;4996664;28;20091;-62
2023/06/22 09:24:01;;;;;;;9.43;4.22;;;;;;;26.43;61.88;97132.25;4995187;28;20038;-62
2023/06/22 09:26:27;;;;;;;10.13;4.70;;;;;;;26.36;62.03;97124.56;4994813;28;20034;-62
2023/06/22 09:28:54;;;;;;;7.28;4.22;;;;;;;26.32;61.91;97123.69;4995451;28;20191;-63
2023/06/22 09:31:25;;;;;;;10.27;4.07;;;;;;;26.39;62.51;97136.91;5001478;28;20046;-61
2023/06/22 09:33:53;;;;;;;11.93;4.70;;;;;;;26.47;62.17;97138.66;5001694;28;20050;-62
2023/06/22 09:36:21;;;;;;;11.45;4.22;;;;;;;26.41;63.21;97138.16;5000454;28;20065;-62
2023/06/22 09:38:49;;;;;;;12.07;5.38;;;;;;;26.55;63.92;97129.31;4995684;28;20047;-62
2023/06/22 09:41:15;;;;;;;10.50;4.82;;;;;;;26.68;62.62;97123.63;4996273;28;20046;-62
2023/06/22 09:43:42;;;;;;;9.55;4.10;;;;;;;26.90;60.73;97110.16;5001305;28;20042;-62
2023/06/22 09:46:09;;;;;;;9.32;4.97;;;;;;;27.07;60.14;97106.13;5000217;28;20038;-62
2023/06/22 09:48:35;;;;;;;9.88;4.70;;;;;;;27.35;59.92;97105.84;5005364;28;20605;-62
2023/06/22 09:51:06;;;;;;;16.10;5.65;;;;;;;27.63;57.82;97117.84;5001301;28;20119;-62
2023/06/22 09:53:34;;;;;;;9.57;4.30;;;;;;;27.72;57.67;97121.22;5002211;28;20031;-62
2023/06/22 09:56:01;;;;;;;9.75;4.80;;;;;;;27.94;56.92;97132.66;4997840;28;20049;-61
2023/06/22 09:58:28;;;;;;;11.40;4.28;;;;;;;28.22;56.49;97127.91;5002437;28;20033;-62
2023/06/22 10:00:54;;;;;;;9.88;4.85;;;;;;;28.36;55.50;97116.19;5002391;28;20041;-62
2023/06/22 10:03:21;;;;;;;10.15;4.40;;;;;;;28.31;54.27;97111.75;5001481;28;20686;-62
2023/06/22 10:05:48;;;;;;;11.50;4.72;;;;;;;28.27;55.02;97108.91;5001142;28;20046;-62
2023/06/22 10:08:14;;;;;;;14.02;4.28;;;;;;;28.46;54.74;97109.16;5005160;28;20420;-62
2023/06/22 10:10:41;;;;;;;7.57;4.25;;;;;;;28.64;54.15;97092.66;5002504;28;20126;-62
2023/06/22 10:13:12;;;;;;;10.75;4.68;;;;;;;28.77;53.05;97098.78;5005827;28;20543;-61
2023/06/22 10:15:38;;;;;;;10.63;4.60;;;;;;;28.90;53.57;97091.81;5000663;28;20554;-62
2023/06/22 10:18:05;;;;;;;11.32;4.63;;;;;;;29.20;52.84;97090.91;5000068;28;20485;-62
2023/06/22 10:20:32;;;;;;;10.88;4.03;;;;;;;29.32;51.78;97092.63;4999648;28;20034;-61
2023/06/22 10:22:58;;;;;;;10.82;4.82;;;;;;;29.34;51.85;97090.22;4999843;28;20416;-62
2023/06/22 10:25:26;;;;;;;11.85;4.70;;;;;;;29.50;51.20;97088.38;5000173;28;20049;-62
2023/06/22 10:27:53;;;;;;;11.02;4.72;;;;;;;29.42;52.00;97073.56;5001076;28;20127;-62
2023/06/22 10:30:21;;;;;;;11.88;5.65;;;;;;;29.53;51.97;97071.72;5003108;28;20092;-62
2023/06/22 10:32:47;;;;;;;9.15;4.03;;;;;;;29.69;51.62;97079.81;5000851;28;20049;-62
2023/06/22 10:35:15;;;;;;;17.75;5.38;;;;;;;29.56;52.38;97081.28;5004653;28;20042;-62
2023/06/22 10:37:44;;;;;;;9.98;4.90;;;;;;;29.67;51.75;97079.38;5005431;28;20129;-61
2023/06/22 10:40:15;;;;;;;10.38;4.57;;;;;;;29.75;52.08;97071.88;5001954;28;20100;-62
2023/06/22 10:42:42;;;;;;;12.95;5.10;;;;;;;29.54;51.56;97069.72;4999242;28;20046;-60
2023/06/22 10:45:09;;;;;;;9.30;4.72;;;;;;;29.54;51.61;97078.88;4998649;28;20042;-61
2023/06/22 10:47:36;;;;;;;10.30;4.70;;;;;;;29.93;51.07;97077.59;4998805;28;20069;-61
2023/06/22 10:50:04;;;;;;;9.60;4.90;;;;;;;29.89;49.26;97073.16;5003979;28;20037;-61
2023/06/22 10:52:30;;;;;;;12.30;5.30;;;;;;;30.10;50.76;97061.31;4998418;28;20046;-62
2023/06/22 10:54:57;;;;;;;10.43;4.18;;;;;;;30.36;49.50;97065.06;5003949;28;20049;-61
2023/06/22 10:57:24;;;;;;;14.95;5.15;;;;;;;30.45;48.50;97068.31;4979203;28;20596;-61
2023/06/22 10:59:50;;;;;;;10.80;4.78;;;;;;;30.26;49.00;97068.59;5000495;28;20121;-62
2023/06/22 11:02:17;;;;;;;9.27;4.90;;;;;;;30.47;48.53;97065.91;5000482;28;20045;-62
2023/06/22 11:04:44;;;;;;;9.35;4.53;;;;;;;30.65;48.03;97070.75;5000731;28;20046;-62
2023/06/22 11:07:10;;;;;;;10.13;4.65;;;;;;;30.50;48.79;97067.91;5001243;28;20069;-61
2023/06/22 11:09:38;;;;;;;11.45;5.30;;;;;;;30.83;47.89;97058.84;4997903;28;20039;-62
2023/06/22 11:12:06;;;;;;;10.80;4.90;;;;;;;30.68;48.28;97056.00;5000893;28;20042;-62
2023/06/22 11:14:35;;;;;;;11.00;4.75;;;;;;;30.56;48.58;97064.75;5000287;28;20048;-62
2023/06/22 11:17:01;;;;;;;9.65;4.85;;;;;;;30.82;48.35;97065.66;4992691;28;20038;-62
2023/06/22 11:19:28;;;;;;;8.88;4.80;;;;;;;30.86;48.00;97067.28;5002202;28;20042;-62
2023/06/22 11:21:54;;;;;;;10.18;4.60;;;;;;;30.91;47.20;97062.50;5002719;28;20026;-62
2023/06/22 11:24:21;;;;;;;10.23;4.72;;;;;;;30.91;48.11;97062.50;5003038;28;20043;-61
2023/06/22 11:26:48;;;;;;;16.65;5.40;;;;;;;30.82;48.27;97060.06;5000153;28;20042;-62